sensor_id;sensor_type;location;lat;lon;timestamp;P1;durP1;ratioP1;P2;durP2;ratioP2
25169;SDS011;13129;48.012;10.352;2022-10-16T03:31:20;2.92;;;2.10;;
25169;SDS011;13129;48.012;10.352;2022-10-16T03:33:45;2.33;;;2.13;;
25169;SDS011;13129;48.012;10.352;2022-10-16T03:36:11;2.10;;;1.90;;
25169;SDS011;13129;48.012;10.352;2022-10-16T03:38:36;2.10;;;1.85;;
25169;SDS011;13129;48.012;10.352;2022-10-16T03:41:02;3.67;;;1.90;;
25169;SDS011;13129;48.012;10.352;2022-10-16T03:43:28;2.63;;;1.60;;
25169;SDS011;13129;48.012;10.352;2022-10-16T03:45:54;4.32;;;1.83;;
25169;SDS011;13129;48.012;10.352;2022-10-16T03:48:20;1.98;;;1.65;;
25169;SDS011;13129;48.012;10.352;2022-10-16T03:50:45;2.72;;;2.42;;
25169;SDS011;13129;48.012;10.352;2022-10-16T03:53:13;2.63;;;1.88;;
25169;SDS011;13129;48.012;10.352;2022-10-16T03:55:40;3.13;;;2.00;;
25169;SDS011;13129;48.012;10.352;2022-10-16T03:58:07;4.60;;;2.20;;
25169;SDS011;13129;48.012;10.352;2022-10-16T04:00:33;6.43;;;2.17;;
25169;SDS011;13129;48.012;10.352;2022-10-16T04:02:59;4.60;;;1.70;;
25169;SDS011;13129;48.012;10.352;2022-10-16T04:05:25;2.97;;;1.45;;
25169;SDS011;13129;48.012;10.352;2022-10-16T04:07:51;3.65;;;1.80;;
25169;SDS011;13129;48.012;10.352;2022-10-16T04:10:17;3.25;;;1.63;;
25169;SDS011;13129;48.012;10.352;2022-10-16T04:12:43;2.58;;;1.67;;
25169;SDS011;13129;48.012;10.352;2022-10-16T04:15:08;3.15;;;1.95;;
25169;SDS011;13129;48.012;10.352;2022-10-16T04:17:35;5.28;;;2.08;;
25169;SDS011;13129;48.012;10.352;2022-10-16T04:20:00;1.83;;;1.60;;
25169;SDS011;13129;48.012;10.352;2022-10-16T04:22:26;3.08;;;1.70;;
25169;SDS011;13129;48.012;10.352;2022-10-16T04:24:52;3.25;;;1.70;;
25169;SDS011;13129;48.012;10.352;2022-10-16T04:27:17;2.08;;;1.58;;
25169;SDS011;13129;48.012;10.352;2022-10-16T04:29:43;2.10;;;1.75;;
25169;SDS011;13129;48.012;10.352;2022-10-16T04:32:09;5.47;;;2.20;;
25169;SDS011;13129;48.012;10.352;2022-10-16T04:34:34;2.95;;;1.80;;
25169;SDS011;13129;48.012;10.352;2022-10-16T04:37:00;4.45;;;2.00;;
25169;SDS011;13129;48.012;10.352;2022-10-16T04:39:26;3.13;;;1.90;;
25169;SDS011;13129;48.012;10.352;2022-10-16T04:41:51;2.97;;;2.03;;
25169;SDS011;13129;48.012;10.352;2022-10-16T04:44:17;2.88;;;2.53;;
25169;SDS011;13129;48.012;10.352;2022-10-16T04:46:42;4.80;;;2.13;;
25169;SDS011;13129;48.012;10.352;2022-10-16T04:49:09;1.95;;;1.52;;
25169;SDS011;13129;48.012;10.352;2022-10-16T04:51:35;2.47;;;1.85;;
25169;SDS011;13129;48.012;10.352;2022-10-16T04:54:00;4.95;;;2.17;;
25169;SDS011;13129;48.012;10.352;2022-10-16T04:56:26;5.80;;;2.10;;
25169;SDS011;13129;48.012;10.352;2022-10-16T04:58:52;2.65;;;1.60;;
25169;SDS011;13129;48.012;10.352;2022-10-16T05:01:18;3.25;;;1.90;;
25169;SDS011;13129;48.012;10.352;2022-10-16T05:03:43;3.85;;;2.00;;
25169;SDS011;13129;48.012;10.352;2022-10-16T05:06:09;2.35;;;1.50;;
25169;SDS011;13129;48.012;10.352;2022-10-16T05:08:34;3.83;;;1.77;;
25169;SDS011;13129;48.012;10.352;2022-10-16T05:11:00;2.90;;;2.10;;
25169;SDS011;13129;48.012;10.352;2022-10-16T05:13:27;4.32;;;2.15;;
25169;SDS011;13129;48.012;10.352;2022-10-16T05:15:52;3.10;;;2.80;;
25169;SDS011;13129;48.012;10.352;2022-10-16T05:18:18;2.20;;;1.98;;
25169;SDS011;13129;48.012;10.352;2022-10-16T05:20:43;3.47;;;2.22;;
25169;SDS011;13129;48.012;10.352;2022-10-16T05:23:09;5.03;;;2.13;;
25169;SDS011;13129;48.012;10.352;2022-10-16T05:25:36;7.68;;;2.28;;
25169;SDS011;13129;48.012;10.352;2022-10-16T05:28:02;4.10;;;1.80;;
25169;SDS011;13129;48.012;10.352;2022-10-16T05:30:28;2.42;;;1.75;;
25169;SDS011;13129;48.012;10.352;2022-10-16T05:32:54;1.50;;;1.40;;
25169;SDS011;13129;48.012;10.352;2022-10-16T05:35:20;2.92;;;1.90;;
25169;SDS011;13129;48.012;10.352;2022-10-16T05:37:46;1.92;;;1.58;;
25169;SDS011;13129;48.012;10.352;2022-10-16T05:40:13;4.15;;;2.47;;
25169;SDS011;13129;48.012;10.352;2022-10-16T05:42:39;2.42;;;1.98;;
25169;SDS011;13129;48.012;10.352;2022-10-16T05:45:06;2.60;;;1.85;;
25169;SDS011;13129;48.012;10.352;2022-10-16T05:47:33;12.77;;;3.35;;
25169;SDS011;13129;48.012;10.352;2022-10-16T05:49:59;3.30;;;2.13;;
25169;SDS011;13129;48.012;10.352;2022-10-16T05:52:26;2.25;;;2.15;;
25169;SDS011;13129;48.012;10.352;2022-10-16T05:54:52;2.65;;;2.33;;
25169;SDS011;13129;48.012;10.352;2022-10-16T05:57:17;6.55;;;3.10;;
25169;SDS011;13129;48.012;10.352;2022-10-16T05:59:43;4.35;;;3.42;;
25169;SDS011;13129;48.012;10.352;2022-10-16T06:02:15;4.10;;;3.13;;
25169;SDS011;13129;48.012;10.352;2022-10-16T06:04:41;4.07;;;3.08;;
25169;SDS011;13129;48.012;10.352;2022-10-16T06:07:06;4.60;;;3.63;;
25169;SDS011;13129;48.012;10.352;2022-10-16T06:09:32;4.00;;;3.60;;
25169;SDS011;13129;48.012;10.352;2022-10-16T06:11:57;9.77;;;5.38;;
25169;SDS011;13129;48.012;10.352;2022-10-16T06:14:23;10.05;;;4.32;;
25169;SDS011;13129;48.012;10.352;2022-10-16T06:16:49;7.85;;;4.95;;
25169;SDS011;13129;48.012;10.352;2022-10-16T06:19:15;5.30;;;4.75;;
25169;SDS011;13129;48.012;10.352;2022-10-16T06:21:41;7.22;;;4.03;;
25169;SDS011;13129;48.012;10.352;2022-10-16T06:24:07;5.68;;;5.05;;
25169;SDS011;13129;48.012;10.352;2022-10-16T06:26:33;7.05;;;5.57;;
25169;SDS011;13129;48.012;10.352;2022-10-16T06:28:59;6.20;;;5.60;;
25169;SDS011;13129;48.012;10.352;2022-10-16T06:31:25;7.85;;;7.05;;
25169;SDS011;13129;48.012;10.352;2022-10-16T06:33:54;12.10;;;8.82;;
25169;SDS011;13129;48.012;10.352;2022-10-16T06:36:21;8.30;;;7.32;;
25169;SDS011;13129;48.012;10.352;2022-10-16T06:38:47;8.63;;;6.70;;
25169;SDS011;13129;48.012;10.352;2022-10-16T06:41:14;7.45;;;5.88;;
25169;SDS011;13129;48.012;10.352;2022-10-16T06:43:41;5.15;;;4.20;;
25169;SDS011;13129;48.012;10.352;2022-10-16T06:46:08;5.20;;;4.20;;
25169;SDS011;13129;48.012;10.352;2022-10-16T06:48:36;5.13;;;3.53;;
25169;SDS011;13129;48.012;10.352;2022-10-16T06:51:03;3.83;;;3.42;;
25169;SDS011;13129;48.012;10.352;2022-10-16T06:53:37;4.80;;;2.92;;
25169;SDS011;13129;48.012;10.352;2022-10-16T06:58:39;7.80;;;6.90;;
25169;SDS011;13129;48.012;10.352;2022-10-16T07:01:06;6.00;;;4.68;;
25169;SDS011;13129;48.012;10.352;2022-10-16T07:03:32;5.80;;;4.97;;
25169;SDS011;13129;48.012;10.352;2022-10-16T07:06:01;6.40;;;5.07;;
25169;SDS011;13129;48.012;10.352;2022-10-16T07:08:30;4.38;;;3.83;;
25169;SDS011;13129;48.012;10.352;2022-10-16T07:10:58;4.90;;;4.40;;
25169;SDS011;13129;48.012;10.352;2022-10-16T07:13:28;4.00;;;3.70;;
25169;SDS011;13129;48.012;10.352;2022-10-16T07:15:54;4.07;;;3.78;;
25169;SDS011;13129;48.012;10.352;2022-10-16T07:18:20;3.33;;;2.80;;
25169;SDS011;13129;48.012;10.352;2022-10-16T07:20:46;4.30;;;2.38;;
25169;SDS011;13129;48.012;10.352;2022-10-16T07:23:12;5.93;;;2.67;;
25169;SDS011;13129;48.012;10.352;2022-10-16T07:25:38;3.60;;;2.80;;
25169;SDS011;13129;48.012;10.352;2022-10-16T07:28:03;3.28;;;2.58;;
25169;SDS011;13129;48.012;10.352;2022-10-16T07:30:34;3.53;;;2.50;;
25169;SDS011;13129;48.012;10.352;2022-10-16T07:33:07;4.43;;;2.97;;
25169;SDS011;13129;48.012;10.352;2022-10-16T07:38:57;2.67;;;2.10;;
25169;SDS011;13129;48.012;10.352;2022-10-16T07:41:29;5.90;;;3.80;;
25169;SDS011;13129;48.012;10.352;2022-10-16T07:43:55;6.00;;;3.50;;
25169;SDS011;13129;48.012;10.352;2022-10-16T07:46:24;5.20;;;3.05;;
25169;SDS011;13129;48.012;10.352;2022-10-16T07:48:54;3.30;;;2.38;;
25169;SDS011;13129;48.012;10.352;2022-10-16T07:51:21;6.30;;;4.20;;
25169;SDS011;13129;48.012;10.352;2022-10-16T07:53:48;3.88;;;3.42;;
25169;SDS011;13129;48.012;10.352;2022-10-16T07:56:15;5.90;;;3.67;;
25169;SDS011;13129;48.012;10.352;2022-10-16T07:58:41;4.82;;;2.60;;
25169;SDS011;13129;48.012;10.352;2022-10-16T08:01:08;3.42;;;3.13;;
25169;SDS011;13129;48.012;10.352;2022-10-16T08:03:35;3.53;;;3.22;;
25169;SDS011;13129;48.012;10.352;2022-10-16T08:06:01;4.05;;;3.10;;
25169;SDS011;13129;48.012;10.352;2022-10-16T08:08:28;2.05;;;1.80;;
25169;SDS011;13129;48.012;10.352;2022-10-16T08:11:00;2.90;;;2.47;;
25169;SDS011;13129;48.012;10.352;2022-10-16T08:13:28;2.03;;;1.60;;
25169;SDS011;13129;48.012;10.352;2022-10-16T08:15:54;2.53;;;1.70;;
25169;SDS011;13129;48.012;10.352;2022-10-16T08:18:20;1.63;;;1.50;;
25169;SDS011;13129;48.012;10.352;2022-10-16T08:20:46;3.50;;;1.80;;
25169;SDS011;13129;48.012;10.352;2022-10-16T08:23:12;2.72;;;1.65;;
25169;SDS011;13129;48.012;10.352;2022-10-16T08:25:38;1.92;;;1.70;;
25169;SDS011;13129;48.012;10.352;2022-10-16T08:28:05;1.45;;;1.35;;
25169;SDS011;13129;48.012;10.352;2022-10-16T08:30:32;1.75;;;1.50;;
25169;SDS011;13129;48.012;10.352;2022-10-16T08:32:58;2.13;;;1.73;;
25169;SDS011;13129;48.012;10.352;2022-10-16T08:35:24;2.15;;;1.60;;
25169;SDS011;13129;48.012;10.352;2022-10-16T08:37:50;2.63;;;1.40;;
25169;SDS011;13129;48.012;10.352;2022-10-16T08:40:19;2.97;;;1.27;;
25169;SDS011;13129;48.012;10.352;2022-10-16T08:42:57;1.52;;;1.42;;
25169;SDS011;13129;48.012;10.352;2022-10-16T08:48:29;1.67;;;1.08;;
25169;SDS011;13129;48.012;10.352;2022-10-16T08:51:12;3.80;;;1.20;;
25169;SDS011;13129;48.012;10.352;2022-10-16T08:53:52;1.10;;;1.10;;
25169;SDS011;13129;48.012;10.352;2022-10-16T08:56:20;1.30;;;1.20;;
25169;SDS011;13129;48.012;10.352;2022-10-16T08:58:46;1.23;;;1.02;;
25169;SDS011;13129;48.012;10.352;2022-10-16T09:01:13;1.15;;;1.02;;
25169;SDS011;13129;48.012;10.352;2022-10-16T09:12:40;1.08;;;1.00;;
25169;SDS011;13129;48.012;10.352;2022-10-16T09:15:40;3.35;;;1.50;;
25169;SDS011;13129;48.012;10.352;2022-10-16T09:23:29;1.30;;;1.20;;
25169;SDS011;13129;48.012;10.352;2022-10-16T09:25:55;0.95;;;0.80;;
25169;SDS011;13129;48.012;10.352;2022-10-16T09:28:23;1.77;;;1.17;;
25169;SDS011;13129;48.012;10.352;2022-10-16T09:30:49;1.05;;;1.05;;
25169;SDS011;13129;48.012;10.352;2022-10-16T09:33:14;1.30;;;1.20;;
25169;SDS011;13129;48.012;10.352;2022-10-16T09:35:43;1.05;;;0.95;;
25169;SDS011;13129;48.012;10.352;2022-10-16T09:41:01;1.42;;;1.30;;
25169;SDS011;13129;48.012;10.352;2022-10-16T09:46:28;3.35;;;1.30;;
25169;SDS011;13129;48.012;10.352;2022-10-16T09:49:19;1.55;;;1.20;;
25169;SDS011;13129;48.012;10.352;2022-10-16T09:51:45;1.13;;;1.13;;
25169;SDS011;13129;48.012;10.352;2022-10-16T09:56:40;1.77;;;1.50;;
25169;SDS011;13129;48.012;10.352;2022-10-16T09:59:13;10.32;;;8.02;;
25169;SDS011;13129;48.012;10.352;2022-10-16T10:01:41;2.97;;;2.22;;
25169;SDS011;13129;48.012;10.352;2022-10-16T10:04:12;4.32;;;1.70;;
25169;SDS011;13129;48.012;10.352;2022-10-16T10:14:25;2.03;;;1.83;;
25169;SDS011;13129;48.012;10.352;2022-10-16T10:19:29;1.58;;;1.40;;
25169;SDS011;13129;48.012;10.352;2022-10-16T10:22:13;2.80;;;1.50;;
25169;SDS011;13129;48.012;10.352;2022-10-16T10:27:40;2.63;;;1.67;;
25169;SDS011;13129;48.012;10.352;2022-10-16T10:35:17;2.97;;;2.75;;
25169;SDS011;13129;48.012;10.352;2022-10-16T10:40:30;1.30;;;1.20;;
25169;SDS011;13129;48.012;10.352;2022-10-16T10:46:25;2.33;;;0.98;;
25169;SDS011;13129;48.012;10.352;2022-10-16T10:49:09;0.95;;;0.95;;
25169;SDS011;13129;48.012;10.352;2022-10-16T11:02:41;2.30;;;1.63;;
25169;SDS011;13129;48.012;10.352;2022-10-16T11:08:19;1.20;;;1.10;;
25169;SDS011;13129;48.012;10.352;2022-10-16T11:16:03;3.30;;;1.17;;
25169;SDS011;13129;48.012;10.352;2022-10-16T11:25:13;2.83;;;1.15;;
25169;SDS011;13129;48.012;10.352;2022-10-16T11:28:10;1.20;;;1.10;;
25169;SDS011;13129;48.012;10.352;2022-10-16T11:33:44;1.48;;;1.38;;
25169;SDS011;13129;48.012;10.352;2022-10-16T11:36:25;1.85;;;1.27;;
25169;SDS011;13129;48.012;10.352;2022-10-16T11:39:30;2.15;;;0.95;;
25169;SDS011;13129;48.012;10.352;2022-10-16T11:42:11;4.40;;;1.20;;
25169;SDS011;13129;48.012;10.352;2022-10-16T11:44:50;1.45;;;1.10;;
25169;SDS011;13129;48.012;10.352;2022-10-16T11:48:06;1.42;;;1.30;;
25169;SDS011;13129;48.012;10.352;2022-10-16T11:55:52;3.60;;;1.60;;
25169;SDS011;13129;48.012;10.352;2022-10-16T12:03:45;1.17;;;1.08;;
25169;SDS011;13129;48.012;10.352;2022-10-16T12:06:31;3.08;;;1.20;;
25169;SDS011;13129;48.012;10.352;2022-10-16T12:11:40;1.08;;;1.00;;
25169;SDS011;13129;48.012;10.352;2022-10-16T12:16:38;1.02;;;1.02;;
25169;SDS011;13129;48.012;10.352;2022-10-16T12:19:19;1.92;;;1.27;;
25169;SDS011;13129;48.012;10.352;2022-10-16T12:21:45;3.25;;;1.10;;
25169;SDS011;13129;48.012;10.352;2022-10-16T12:24:22;1.75;;;1.10;;
25169;SDS011;13129;48.012;10.352;2022-10-16T12:27:05;1.52;;;1.20;;
25169;SDS011;13129;48.012;10.352;2022-10-16T12:29:45;1.60;;;1.20;;
25169;SDS011;13129;48.012;10.352;2022-10-16T12:32:23;1.05;;;1.00;;
25169;SDS011;13129;48.012;10.352;2022-10-16T12:34:55;1.27;;;1.17;;
25169;SDS011;13129;48.012;10.352;2022-10-16T12:37:35;1.20;;;1.20;;
25169;SDS011;13129;48.012;10.352;2022-10-16T12:42:50;2.50;;;1.10;;
25169;SDS011;13129;48.012;10.352;2022-10-16T12:45:48;2.47;;;1.30;;
25169;SDS011;13129;48.012;10.352;2022-10-16T12:48:21;1.70;;;1.60;;
25169;SDS011;13129;48.012;10.352;2022-10-16T12:50:47;1.27;;;1.20;;
25169;SDS011;13129;48.012;10.352;2022-10-16T12:53:20;1.77;;;1.00;;
25169;SDS011;13129;48.012;10.352;2022-10-16T12:58:33;1.40;;;1.20;;
25169;SDS011;13129;48.012;10.352;2022-10-16T13:01:17;1.85;;;1.05;;
25169;SDS011;13129;48.012;10.352;2022-10-16T13:15:37;2.85;;;1.15;;
25169;SDS011;13129;48.012;10.352;2022-10-16T13:23:23;1.05;;;0.95;;
25169;SDS011;13129;48.012;10.352;2022-10-16T13:25:59;2.85;;;1.33;;
25169;SDS011;13129;48.012;10.352;2022-10-16T13:28:45;1.20;;;1.10;;
25169;SDS011;13129;48.012;10.352;2022-10-16T13:31:18;1.75;;;0.90;;
25169;SDS011;13129;48.012;10.352;2022-10-16T13:33:48;1.30;;;1.00;;
25169;SDS011;13129;48.012;10.352;2022-10-16T13:37:01;2.25;;;1.00;;
25169;SDS011;13129;48.012;10.352;2022-10-16T13:39:13;1.42;;;1.33;;
25169;SDS011;13129;48.012;10.352;2022-10-16T13:41:45;1.77;;;1.25;;
25169;SDS011;13129;48.012;10.352;2022-10-16T13:44:23;2.35;;;1.15;;
25169;SDS011;13129;48.012;10.352;2022-10-16T13:46:58;1.58;;;1.10;;
25169;SDS011;13129;48.012;10.352;2022-10-16T13:49:25;1.65;;;1.13;;
25169;SDS011;13129;48.012;10.352;2022-10-16T13:51:55;1.05;;;0.98;;
25169;SDS011;13129;48.012;10.352;2022-10-16T13:54:22;1.77;;;1.02;;
25169;SDS011;13129;48.012;10.352;2022-10-16T13:56:48;0.80;;;0.80;;
25169;SDS011;13129;48.012;10.352;2022-10-16T13:59:24;0.95;;;0.95;;
25169;SDS011;13129;48.012;10.352;2022-10-16T14:01:53;1.08;;;1.08;;
25169;SDS011;13129;48.012;10.352;2022-10-16T14:04:21;1.13;;;1.00;;
25169;SDS011;13129;48.012;10.352;2022-10-16T14:06:49;1.10;;;1.00;;
25169;SDS011;13129;48.012;10.352;2022-10-16T14:09:23;1.10;;;0.90;;
25169;SDS011;13129;48.012;10.352;2022-10-16T14:11:50;1.35;;;1.25;;
25169;SDS011;13129;48.012;10.352;2022-10-16T14:14:19;1.48;;;1.27;;
25169;SDS011;13129;48.012;10.352;2022-10-16T14:16:46;2.83;;;1.40;;
25169;SDS011;13129;48.012;10.352;2022-10-16T14:19:15;1.88;;;1.20;;
25169;SDS011;13129;48.012;10.352;2022-10-16T14:21:53;2.65;;;1.35;;
25169;SDS011;13129;48.012;10.352;2022-10-16T14:24:37;1.83;;;1.13;;
25169;SDS011;13129;48.012;10.352;2022-10-16T14:27:20;1.40;;;1.30;;
25169;SDS011;13129;48.012;10.352;2022-10-16T14:30:05;1.60;;;1.50;;
25169;SDS011;13129;48.012;10.352;2022-10-16T14:32:58;1.20;;;1.10;;
25169;SDS011;13129;48.012;10.352;2022-10-16T14:35:30;1.15;;;1.05;;
25169;SDS011;13129;48.012;10.352;2022-10-16T14:40:23;1.10;;;1.00;;
25169;SDS011;13129;48.012;10.352;2022-10-16T14:43:20;2.45;;;1.48;;
25169;SDS011;13129;48.012;10.352;2022-10-16T14:45:50;2.35;;;1.20;;
25169;SDS011;13129;48.012;10.352;2022-10-16T14:48:19;1.27;;;1.00;;
25169;SDS011;13129;48.012;10.352;2022-10-16T14:50:45;1.45;;;1.02;;
25169;SDS011;13129;48.012;10.352;2022-10-16T14:53:11;1.20;;;1.20;;
25169;SDS011;13129;48.012;10.352;2022-10-16T14:55:38;1.77;;;1.20;;
25169;SDS011;13129;48.012;10.352;2022-10-16T14:58:05;1.25;;;1.20;;
25169;SDS011;13129;48.012;10.352;2022-10-16T15:00:51;1.48;;;1.20;;
25169;SDS011;13129;48.012;10.352;2022-10-16T15:03:17;2.05;;;1.50;;
25169;SDS011;13129;48.012;10.352;2022-10-16T15:05:42;2.33;;;1.15;;
25169;SDS011;13129;48.012;10.352;2022-10-16T15:08:08;1.50;;;1.40;;
25169;SDS011;13129;48.012;10.352;2022-10-16T15:10:36;2.15;;;1.30;;
25169;SDS011;13129;48.012;10.352;2022-10-16T15:13:05;1.45;;;1.35;;
25169;SDS011;13129;48.012;10.352;2022-10-16T15:15:38;1.63;;;1.30;;
25169;SDS011;13129;48.012;10.352;2022-10-16T15:18:07;1.50;;;1.40;;
25169;SDS011;13129;48.012;10.352;2022-10-16T15:20:34;2.80;;;1.90;;
25169;SDS011;13129;48.012;10.352;2022-10-16T15:23:05;2.47;;;1.60;;
25169;SDS011;13129;48.012;10.352;2022-10-16T15:28:14;2.60;;;1.70;;
25169;SDS011;13129;48.012;10.352;2022-10-16T15:30:42;2.30;;;1.52;;
25169;SDS011;13129;48.012;10.352;2022-10-16T15:33:15;3.97;;;1.60;;
25169;SDS011;13129;48.012;10.352;2022-10-16T15:35:44;3.70;;;1.92;;
25169;SDS011;13129;48.012;10.352;2022-10-16T15:38:12;5.15;;;2.20;;
25169;SDS011;13129;48.012;10.352;2022-10-16T15:40:38;2.83;;;2.17;;
25169;SDS011;13129;48.012;10.352;2022-10-16T15:43:05;3.60;;;1.98;;
25169;SDS011;13129;48.012;10.352;2022-10-16T16:08:49;4.82;;;2.70;;
25169;SDS011;13129;48.012;10.352;2022-10-16T16:11:16;3.58;;;1.92;;
25169;SDS011;13129;48.012;10.352;2022-10-16T16:13:42;3.55;;;2.00;;
25169;SDS011;13129;48.012;10.352;2022-10-16T16:16:09;4.40;;;2.05;;
25169;SDS011;13129;48.012;10.352;2022-10-16T16:18:37;2.65;;;2.00;;
25169;SDS011;13129;48.012;10.352;2022-10-16T16:21:05;3.47;;;2.35;;
25169;SDS011;13129;48.012;10.352;2022-10-16T16:23:32;2.30;;;1.85;;
25169;SDS011;13129;48.012;10.352;2022-10-16T16:28:31;5.25;;;3.13;;
25169;SDS011;13129;48.012;10.352;2022-10-16T16:30:57;5.78;;;2.85;;
25169;SDS011;13129;48.012;10.352;2022-10-16T16:33:23;3.45;;;2.58;;
25169;SDS011;13129;48.012;10.352;2022-10-16T16:35:49;7.28;;;3.00;;
25169;SDS011;13129;48.012;10.352;2022-10-16T16:38:14;3.92;;;2.83;;
25169;SDS011;13129;48.012;10.352;2022-10-16T16:40:40;4.75;;;2.08;;
25169;SDS011;13129;48.012;10.352;2022-10-16T16:43:06;3.70;;;2.22;;
25169;SDS011;13129;48.012;10.352;2022-10-16T16:45:34;6.78;;;2.58;;
25169;SDS011;13129;48.012;10.352;2022-10-16T16:48:00;4.82;;;2.90;;
25169;SDS011;13129;48.012;10.352;2022-10-16T16:50:26;3.63;;;3.33;;
25169;SDS011;13129;48.012;10.352;2022-10-16T16:52:52;3.65;;;3.03;;
25169;SDS011;13129;48.012;10.352;2022-10-16T16:55:17;6.70;;;4.40;;
25169;SDS011;13129;48.012;10.352;2022-10-16T16:57:43;6.30;;;5.20;;
25169;SDS011;13129;48.012;10.352;2022-10-16T17:00:09;6.40;;;5.03;;
25169;SDS011;13129;48.012;10.352;2022-10-16T17:02:35;9.25;;;5.35;;
25169;SDS011;13129;48.012;10.352;2022-10-16T17:05:01;6.43;;;4.30;;
25169;SDS011;13129;48.012;10.352;2022-10-16T17:07:26;5.35;;;4.85;;
25169;SDS011;13129;48.012;10.352;2022-10-16T17:09:57;5.22;;;4.03;;
25169;SDS011;13129;48.012;10.352;2022-10-16T17:12:23;6.05;;;3.50;;
25169;SDS011;13129;48.012;10.352;2022-10-16T17:14:49;4.43;;;3.28;;
25169;SDS011;13129;48.012;10.352;2022-10-16T17:17:15;3.40;;;3.10;;
25169;SDS011;13129;48.012;10.352;2022-10-16T17:19:41;6.05;;;4.43;;
25169;SDS011;13129;48.012;10.352;2022-10-16T17:22:06;5.60;;;4.25;;
25169;SDS011;13129;48.012;10.352;2022-10-16T17:24:32;5.88;;;5.38;;
25169;SDS011;13129;48.012;10.352;2022-10-16T17:26:58;8.52;;;7.72;;
25169;SDS011;13129;48.012;10.352;2022-10-16T17:29:23;11.30;;;8.52;;
25169;SDS011;13129;48.012;10.352;2022-10-16T17:31:49;9.23;;;8.40;;
25169;SDS011;13129;48.012;10.352;2022-10-16T17:34:15;9.35;;;8.45;;
25169;SDS011;13129;48.012;10.352;2022-10-16T17:36:40;9.10;;;7.53;;
25169;SDS011;13129;48.012;10.352;2022-10-16T17:39:11;13.35;;;9.40;;
25169;SDS011;13129;48.012;10.352;2022-10-16T17:41:39;14.90;;;13.18;;
25169;SDS011;13129;48.012;10.352;2022-10-16T17:44:04;14.68;;;12.05;;
25169;SDS011;13129;48.012;10.352;2022-10-16T17:46:31;12.70;;;10.38;;
25169;SDS011;13129;48.012;10.352;2022-10-16T17:48:57;12.23;;;8.65;;
25169;SDS011;13129;48.012;10.352;2022-10-16T17:51:24;10.88;;;9.40;;
25169;SDS011;13129;48.012;10.352;2022-10-16T17:53:53;11.75;;;8.73;;
25169;SDS011;13129;48.012;10.352;2022-10-16T17:56:20;11.57;;;8.27;;
25169;SDS011;13129;48.012;10.352;2022-10-16T17:58:47;10.05;;;8.18;;
25169;SDS011;13129;48.012;10.352;2022-10-16T18:01:15;12.20;;;9.63;;
25169;SDS011;13129;48.012;10.352;2022-10-16T18:03:42;9.68;;;7.82;;
25169;SDS011;13129;48.012;10.352;2022-10-16T18:06:07;9.23;;;7.43;;
25169;SDS011;13129;48.012;10.352;2022-10-16T18:08:33;7.50;;;6.70;;
25169;SDS011;13129;48.012;10.352;2022-10-16T18:11:00;7.47;;;6.68;;
25169;SDS011;13129;48.012;10.352;2022-10-16T18:13:27;9.68;;;7.10;;
25169;SDS011;13129;48.012;10.352;2022-10-16T18:16:03;12.50;;;10.10;;
25169;SDS011;13129;48.012;10.352;2022-10-16T18:18:33;12.05;;;10.95;;
25169;SDS011;13129;48.012;10.352;2022-10-16T18:21:01;14.48;;;13.00;;
25169;SDS011;13129;48.012;10.352;2022-10-16T18:23:29;12.73;;;11.50;;
25169;SDS011;13129;48.012;10.352;2022-10-16T18:25:54;12.68;;;11.38;;
25169;SDS011;13129;48.012;10.352;2022-10-16T18:28:20;10.98;;;9.50;;
25169;SDS011;13129;48.012;10.352;2022-10-16T18:30:56;9.40;;;8.45;;
25169;SDS011;13129;48.012;10.352;2022-10-16T18:33:23;7.60;;;6.82;;
25169;SDS011;13129;48.012;10.352;2022-10-16T18:35:50;6.80;;;6.10;;
25169;SDS011;13129;48.012;10.352;2022-10-16T18:38:16;7.70;;;5.93;;
25169;SDS011;13129;48.012;10.352;2022-10-16T18:40:41;5.47;;;4.88;;
25169;SDS011;13129;48.012;10.352;2022-10-16T18:43:07;6.63;;;5.32;;
25169;SDS011;13129;48.012;10.352;2022-10-16T18:45:33;7.55;;;5.28;;
25169;SDS011;13129;48.012;10.352;2022-10-16T18:47:58;7.57;;;5.43;;
25169;SDS011;13129;48.012;10.352;2022-10-16T18:50:24;7.68;;;5.75;;
25169;SDS011;13129;48.012;10.352;2022-10-16T18:52:50;8.63;;;5.82;;
25169;SDS011;13129;48.012;10.352;2022-10-16T18:55:15;7.32;;;6.40;;
25169;SDS011;13129;48.012;10.352;2022-10-16T18:57:41;6.60;;;5.72;;
25169;SDS011;13129;48.012;10.352;2022-10-16T19:00:07;6.47;;;5.88;;
25169;SDS011;13129;48.012;10.352;2022-10-16T19:02:33;5.97;;;5.47;;
25169;SDS011;13129;48.012;10.352;2022-10-16T19:04:59;7.32;;;5.78;;
25169;SDS011;13129;48.012;10.352;2022-10-16T19:07:25;9.27;;;6.40;;
25169;SDS011;13129;48.012;10.352;2022-10-16T19:09:51;6.72;;;6.13;;
25169;SDS011;13129;48.012;10.352;2022-10-16T19:12:17;6.40;;;5.88;;
25169;SDS011;13129;48.012;10.352;2022-10-16T19:14:46;8.02;;;5.40;;
25169;SDS011;13129;48.012;10.352;2022-10-16T19:17:12;7.47;;;5.67;;
25169;SDS011;13129;48.012;10.352;2022-10-16T19:19:38;5.13;;;4.47;;
25169;SDS011;13129;48.012;10.352;2022-10-16T19:22:04;10.13;;;5.90;;
25169;SDS011;13129;48.012;10.352;2022-10-16T19:24:38;9.48;;;5.75;;
25169;SDS011;13129;48.012;10.352;2022-10-16T19:27:04;4.18;;;3.13;;
25169;SDS011;13129;48.012;10.352;2022-10-16T19:29:31;7.72;;;4.30;;
25169;SDS011;13129;48.012;10.352;2022-10-16T19:31:57;8.63;;;4.65;;
25169;SDS011;13129;48.012;10.352;2022-10-16T19:34:23;14.85;;;9.32;;
25169;SDS011;13129;48.012;10.352;2022-10-16T19:36:49;9.23;;;5.85;;
25169;SDS011;13129;48.012;10.352;2022-10-16T19:39:17;5.38;;;3.67;;
25169;SDS011;13129;48.012;10.352;2022-10-16T19:41:43;3.53;;;3.22;;
25169;SDS011;13129;48.012;10.352;2022-10-16T19:44:11;3.65;;;3.08;;
25169;SDS011;13129;48.012;10.352;2022-10-16T19:46:40;4.82;;;2.70;;
25169;SDS011;13129;48.012;10.352;2022-10-16T19:49:08;3.85;;;2.80;;
25169;SDS011;13129;48.012;10.352;2022-10-16T19:51:40;6.05;;;3.30;;
25169;SDS011;13129;48.012;10.352;2022-10-16T19:54:07;6.55;;;3.85;;
25169;SDS011;13129;48.012;10.352;2022-10-16T19:56:37;5.40;;;2.75;;
25169;SDS011;13129;48.012;10.352;2022-10-16T19:59:03;3.58;;;2.60;;
25169;SDS011;13129;48.012;10.352;2022-10-16T20:01:30;4.93;;;2.97;;
25169;SDS011;13129;48.012;10.352;2022-10-16T20:03:56;3.67;;;3.35;;
25169;SDS011;13129;48.012;10.352;2022-10-16T20:06:22;4.20;;;2.70;;
25169;SDS011;13129;48.012;10.352;2022-10-16T20:08:49;4.03;;;2.70;;
25169;SDS011;13129;48.012;10.352;2022-10-16T20:11:20;5.03;;;2.67;;
25169;SDS011;13129;48.012;10.352;2022-10-16T20:13:51;5.03;;;2.90;;
25169;SDS011;13129;48.012;10.352;2022-10-16T20:16:17;3.05;;;2.53;;
25169;SDS011;13129;48.012;10.352;2022-10-16T20:18:44;9.80;;;2.50;;
25169;SDS011;13129;48.012;10.352;2022-10-16T20:21:12;2.55;;;2.20;;
25169;SDS011;13129;48.012;10.352;2022-10-16T20:23:40;5.15;;;2.42;;
25169;SDS011;13129;48.012;10.352;2022-10-16T20:26:06;2.65;;;2.33;;
25169;SDS011;13129;48.012;10.352;2022-10-16T20:28:35;3.97;;;2.67;;
25169;SDS011;13129;48.012;10.352;2022-10-16T20:31:06;2.67;;;2.20;;
25169;SDS011;13129;48.012;10.352;2022-10-16T20:33:35;3.13;;;2.25;;
25169;SDS011;13129;48.012;10.352;2022-10-16T20:36:01;5.18;;;2.38;;
25169;SDS011;13129;48.012;10.352;2022-10-16T20:38:26;4.10;;;2.30;;
25169;SDS011;13129;48.012;10.352;2022-10-16T20:40:52;4.38;;;2.05;;
25169;SDS011;13129;48.012;10.352;2022-10-16T20:43:18;2.67;;;2.03;;
25169;SDS011;13129;48.012;10.352;2022-10-16T20:45:44;2.88;;;2.25;;
25169;SDS011;13129;48.012;10.352;2022-10-16T20:48:10;3.80;;;2.65;;